Time;durP1;ratioP1;P1;durP2;ratioP2;P2;SDS_P1;SDS_P2;PMS_P1;PMS_P2;Temp;Humidity;BMP_temperature;BMP_pressure;BME280_temperature;BME280_humidity;BME280_pressure;Samples;Min_cycle;Max_cycle;Signal;HPM_P1;HPM_P2
2023/06/11 00:02:05;;;;;;;12.98;7.13;;;;;;;;;;4865777;28;20651;-64
2023/06/11 00:04:30;;;;;;;17.90;7.32;;;;;;;;;;4863605;28;20043;-64
2023/06/11 00:06:56;;;;;;;13.40;7.07;;;;;;;;;;4864186;28;20037;-64
2023/06/11 00:09:24;;;;;;;12.20;7.25;;;;;;;;;;4863467;28;20080;-64
2023/06/11 00:11:49;;;;;;;19.33;7.53;;;;;;;;;;4862967;28;20036;-64
2023/06/11 00:14:15;;;;;;;18.52;7.28;;;;;;;;;;4862674;28;20041;-65
2023/06/11 00:16:41;;;;;;;13.43;7.50;;;;;;;;;;4863534;28;20533;-64
2023/06/11 00:19:08;;;;;;;15.55;7.40;;;;;;;;;;4860914;28;20039;-64
2023/06/11 00:21:34;;;;;;;15.18;8.38;;;;;;;;;;4866172;28;20399;-64
2023/06/11 00:23:59;;;;;;;13.13;8.15;;;;;;;;;;4863345;28;20159;-65
2023/06/11 00:26:25;;;;;;;14.25;7.53;;;;;;;;;;4865363;28;20049;-64
2023/06/11 00:28:51;;;;;;;14.57;8.20;;;;;;;;;;4864830;28;20119;-64
2023/06/11 00:31:18;;;;;;;15.20;7.40;;;;;;;;;;4865599;28;22246;-64
2023/06/11 00:33:44;;;;;;;14.90;7.90;;;;;;;;;;4868438;28;21102;-64
2023/06/11 00:36:11;;;;;;;18.60;7.75;;;;;;;;;;4867794;28;20045;-64
2023/06/11 00:38:37;;;;;;;14.60;7.82;;;;;;;;;;4866929;28;20040;-64
2023/06/11 00:41:02;;;;;;;15.00;7.95;;;;;;;;;;4866231;28;20041;-64
2023/06/11 00:43:28;;;;;;;14.13;8.43;;;;;;;;;;4847141;28;20059;-64
2023/06/11 00:45:54;;;;;;;15.23;8.27;;;;;;;;;;4866346;28;20044;-64
2023/06/11 00:48:20;;;;;;;13.82;8.40;;;;;;;;;;4866811;28;20052;-64
2023/06/11 00:50:49;;;;;;;11.82;7.57;;;;;;;;;;4867014;28;20506;-64
2023/06/11 00:53:18;;;;;;;13.70;7.28;;;;;;;;;;4865683;28;20056;-64
2023/06/11 00:55:44;;;;;;;15.70;6.95;;;;;;;;;;4866370;28;20167;-64
2023/06/11 00:58:13;;;;;;;13.57;6.80;;;;;;;;;;4867669;28;20956;-64
2023/06/11 01:00:40;;;;;;;12.38;7.25;;;;;;;;;;4867379;28;20076;-64
2023/06/11 01:03:08;;;;;;;13.07;7.32;;;;;;;;;;4867994;28;20045;-64
2023/06/11 01:05:42;;;;;;;14.27;7.55;;;;;;;;;;4867138;28;22448;-64
2023/06/11 01:08:12;;;;;;;15.18;7.13;;;;;;;;;;4864787;28;20049;-65
2023/06/11 01:10:37;;;;;;;14.40;7.47;;;;;;;;;;4866945;28;20715;-65
2023/06/11 01:13:03;;;;;;;13.00;7.30;;;;;;;;;;4865772;28;20040;-64
2023/06/11 01:15:28;;;;;;;13.10;7.40;;;;;;;;;;4867231;28;20041;-64
2023/06/11 01:17:56;;;;;;;13.90;7.40;;;;;;;;;;4880578;28;20071;-65
2023/06/11 01:20:25;;;;;;;11.60;7.03;;;;;;;;;;4867633;28;20131;-64
2023/06/11 01:23:09;;;;;;;13.02;7.35;;;;;;;;;;4866194;28;20103;-64
2023/06/11 01:25:54;;;;;;;13.40;7.63;;;;;;;;;;4879348;28;20060;-64
2023/06/11 01:28:28;;;;;;;15.18;7.20;;;;;;;;;;4864624;28;20421;-64
2023/06/11 01:30:57;;;;;;;13.95;6.63;;;;;;;;;;4867562;28;20094;-63
2023/06/11 01:33:26;;;;;;;14.25;6.85;;;;;;;;;;4865577;28;20087;-63
2023/06/11 01:35:52;;;;;;;14.30;6.95;;;;;;;;;;4865030;28;20048;-64
2023/06/11 01:38:21;;;;;;;14.82;7.22;;;;;;;;;;4879111;28;20040;-64
2023/06/11 01:40:47;;;;;;;14.75;7.18;;;;;;;;;;4865555;28;20044;-64
2023/06/11 01:43:14;;;;;;;12.93;7.03;;;;;;;;;;4864355;28;20099;-64
2023/06/11 01:45:39;;;;;;;14.38;7.63;;;;;;;;;;4866407;28;20040;-64
2023/06/11 01:48:05;;;;;;;14.20;6.90;;;;;;;;;;4866351;28;20052;-65
2023/06/11 01:50:30;;;;;;;13.88;7.00;;;;;;;;;;4865731;28;20044;-64
2023/06/11 01:52:56;;;;;;;15.60;8.02;;;;;;;;;;4865310;28;20155;-64
2023/06/11 01:55:21;;;;;;;14.25;7.43;;;;;;;;;;4865772;28;20115;-64
2023/06/11 01:57:46;;;;;;;13.00;7.00;;;;;;;;;;4866410;28;20066;-65
2023/06/11 02:00:12;;;;;;;12.10;7.22;;;;;;;;;;4877871;28;20497;-64
2023/06/11 02:02:38;;;;;;;10.82;6.85;;;;;;;;;;4880100;28;20072;-64
2023/06/11 02:05:03;;;;;;;12.55;6.65;;;;;;;;;;4864946;28;20045;-65
2023/06/11 02:07:29;;;;;;;11.90;7.43;;;;;;;;;;4865044;28;20045;-64
2023/06/11 02:09:54;;;;;;;14.50;7.07;;;;;;;;;;4864631;28;20099;-64
2023/06/11 02:12:19;;;;;;;13.02;7.32;;;;;;;;;;4880440;28;20482;-64
2023/06/11 02:14:47;;;;;;;14.07;7.35;;;;;;;;;;4864624;28;20040;-65
2023/06/11 02:17:15;;;;;;;12.48;7.32;;;;;;;;;;4865642;28;20045;-64
2023/06/11 02:19:40;;;;;;;12.93;7.40;;;;;;;;;;4864085;28;20041;-64
2023/06/11 02:22:08;;;;;;;15.75;7.38;;;;;;;;;;4880850;28;20052;-65
2023/06/11 02:24:38;;;;;;;12.77;7.43;;;;;;;;;;4864539;28;20591;-64
2023/06/11 02:27:03;;;;;;;12.43;7.18;;;;;;;;;;4866333;28;20140;-64
2023/06/11 02:29:29;;;;;;;13.43;7.80;;;;;;;;;;4866375;28;20052;-65
2023/06/11 02:31:54;;;;;;;20.30;7.13;;;;;;;;;;4862825;28;20537;-64
2023/06/11 02:34:19;;;;;;;11.52;7.43;;;;;;;;;;4867130;28;20108;-64
2023/06/11 02:36:44;;;;;;;16.38;8.02;;;;;;;;;;4865115;28;20072;-64
2023/06/11 02:39:10;;;;;;;11.38;6.95;;;;;;;;;;4863528;28;20091;-64
2023/06/11 02:41:35;;;;;;;14.55;8.30;;;;;;;;;;4864861;28;20045;-64
2023/06/11 02:44:00;;;;;;;12.45;7.80;;;;;;;;;;4865418;28;20033;-64
2023/06/11 02:46:26;;;;;;;13.60;7.43;;;;;;;;;;4879732;28;20124;-64
2023/06/11 02:48:51;;;;;;;13.00;7.68;;;;;;;;;;4865007;28;20049;-64
2023/06/11 02:51:19;;;;;;;12.07;7.05;;;;;;;;;;4877861;28;20041;-64
2023/06/11 02:53:44;;;;;;;17.13;8.02;;;;;;;;;;4865782;28;20047;-64
2023/06/11 02:56:09;;;;;;;12.57;7.88;;;;;;;;;;4864912;28;20095;-65
2023/06/11 02:58:35;;;;;;;15.02;8.20;;;;;;;;;;4880351;28;20695;-64
2023/06/11 03:01:00;;;;;;;18.88;8.02;;;;;;;;;;4865941;28;20040;-64
2023/06/11 03:03:25;;;;;;;13.15;7.90;;;;;;;;;;4863053;28;20037;-64
2023/06/11 03:05:51;;;;;;;11.48;8.18;;;;;;;;;;4865443;28;22271;-64
2023/06/11 03:08:16;;;;;;;15.25;8.07;;;;;;;;;;4864566;28;20143;-65
2023/06/11 03:10:41;;;;;;;12.60;8.18;;;;;;;;;;4863961;28;20041;-64
2023/06/11 03:13:09;;;;;;;13.60;8.68;;;;;;;;;;4862429;28;22313;-64
2023/06/11 03:15:34;;;;;;;13.55;8.38;;;;;;;;;;4864835;28;20083;-64
2023/06/11 03:17:59;;;;;;;11.75;8.52;;;;;;;;;;4878926;28;20048;-64
2023/06/11 03:20:28;;;;;;;13.18;8.45;;;;;;;;;;4877851;28;20506;-64
2023/06/11 03:22:53;;;;;;;12.43;8.43;;;;;;;;;;4864362;28;20041;-64
2023/06/11 03:25:18;;;;;;;11.75;8.20;;;;;;;;;;4864632;28;20486;-64
2023/06/11 03:27:46;;;;;;;13.73;8.30;;;;;;;;;;4864081;28;20122;-64
2023/06/11 03:30:13;;;;;;;10.85;7.88;;;;;;;;;;4879392;28;20061;-64
2023/06/11 03:32:41;;;;;;;12.45;8.48;;;;;;;;;;4864247;28;20036;-65
2023/06/11 03:35:09;;;;;;;14.50;8.50;;;;;;;;;;4862398;28;20087;-64
2023/06/11 03:37:34;;;;;;;12.68;8.25;;;;;;;;;;4865558;28;20035;-64
2023/06/11 03:39:59;;;;;;;16.52;9.05;;;;;;;;;;4863883;28;20033;-64
2023/06/11 03:42:25;;;;;;;14.48;9.30;;;;;;;;;;4864280;28;20037;-65
2023/06/11 03:44:53;;;;;;;14.63;9.93;;;;;;;;;;4863109;28;20143;-64
2023/06/11 03:47:20;;;;;;;16.10;10.38;;;;;;;;;;4877550;28;20041;-64
2023/06/11 03:49:45;;;;;;;14.77;10.90;;;;;;;;;;4945186;28;20095;-64
2023/06/11 03:52:11;;;;;;;15.68;10.63;;;;;;;;;;4864508;28;20033;-64
2023/06/11 03:54:36;;;;;;;14.45;10.65;;;;;;;;;;4864094;28;20041;-64
2023/06/11 03:57:01;;;;;;;15.57;9.93;;;;;;;;;;4875321;28;21358;-64
2023/06/11 03:59:27;;;;;;;13.00;9.52;;;;;;;;;;4865174;28;20377;-64
2023/06/11 04:01:52;;;;;;;17.23;10.10;;;;;;;;;;4867857;28;20136;-64
2023/06/11 04:04:17;;;;;;;18.50;11.00;;;;;;;;;;4867864;28;20446;-68
2023/06/11 04:06:43;;;;;;;17.90;10.48;;;;;;;;;;4862448;28;20045;-68
2023/06/11 04:09:08;;;;;;;17.48;10.23;;;;;;;;;;4847735;28;20481;-68
2023/06/11 04:11:33;;;;;;;14.65;9.50;;;;;;;;;;4849479;28;20037;-68
2023/06/11 04:14:02;;;;;;;14.68;11.10;;;;;;;;;;4878527;28;20809;-68
2023/06/11 04:16:27;;;;;;;15.25;10.43;;;;;;;;;;4862727;28;20045;-68
2023/06/11 04:18:52;;;;;;;14.98;10.40;;;;;;;;;;4847298;28;20846;-68
2023/06/11 04:21:18;;;;;;;16.15;10.80;;;;;;;;;;4871610;28;20042;-68
2023/06/11 04:23:43;;;;;;;16.65;11.30;;;;;;;;;;4842056;28;20044;-68
2023/06/11 04:26:10;;;;;;;15.75;10.73;;;;;;;;;;4841023;28;20042;-64
2023/06/11 04:28:36;;;;;;;13.02;10.30;;;;;;;;;;4896184;28;20051;-64
2023/06/11 04:31:04;;;;;;;15.43;10.80;;;;;;;;;;4916661;28;20046;-65
2023/06/11 04:33:32;;;;;;;15.43;10.07;;;;;;;;;;4850768;28;20042;-64
2023/06/11 04:36:01;;;;;;;15.35;9.90;;;;;;;;;;4847909;28;20569;-64
2023/06/11 04:38:29;;;;;;;14.38;10.02;;;;;;;;;;4842770;29;20052;-65
2023/06/11 04:40:55;;;;;;;11.25;8.70;;;;;;;;;;4847378;28;20036;-64
2023/06/11 04:43:23;;;;;;;16.02;9.90;;;;;;;;;;4851224;28;20046;-64
2023/06/11 04:45:55;;;;;;;12.50;9.52;;;;;;;;;;4845871;28;20060;-64
2023/06/11 04:48:22;;;;;;;;;;;;;;;;;;4847601;28;20049;-64
2023/06/11 04:50:51;;;;;;;13.30;9.35;;;;;;;;;;4849229;28;19920;-65
2023/06/11 04:53:23;;;;;;;11.63;9.23;;;;;;;;;;4849421;28;20041;-65
2023/06/11 04:55:54;;;;;;;12.15;8.70;;;;;;;;;;4845376;28;20048;-64
2023/06/11 04:58:21;;;;;;;;;;;;;;;;;;4845502;28;20162;-64
2023/06/11 05:00:47;;;;;;;11.98;8.80;;;;;;;;;;4845721;29;19927;-64
2023/06/11 05:03:12;;;;;;;10.60;7.68;;;;;;;;;;4847223;28;20050;-64
2023/06/11 05:05:38;;;;;;;14.73;8.43;;;;;;;;;;4846070;29;20119;-64
2023/06/11 05:08:03;;;;;;;11.85;8.23;;;;;;;;;;4835418;28;20124;-64
2023/06/11 05:10:28;;;;;;;11.02;8.38;;;;;;;;;;4918128;28;20041;-64
2023/06/11 05:12:54;;;;;;;10.10;8.20;;;;;;;;;;4884988;28;20042;-64
2023/06/11 05:15:19;;;;;;;10.95;7.40;;;;;;;;;;4847491;28;20037;-64
2023/06/11 05:17:45;;;;;;;9.45;7.38;;;;;;;;;;4861201;28;20678;-63
2023/06/11 05:20:11;;;;;;;11.80;7.40;;;;;;;;;;4850897;28;20041;-64
2023/06/11 05:22:37;;;;;;;9.48;7.43;;;;;;;;;;4855348;28;20087;-64
2023/06/11 05:25:02;;;;;;;9.07;7.40;;;;;;;;;;4849165;28;20116;-65
2023/06/11 05:27:29;;;;;;;9.52;7.63;;;;;;;;;;4922254;28;20062;-65
2023/06/11 05:29:55;;;;;;;8.85;7.05;;;;;;;;;;4860902;28;20053;-64
2023/06/11 05:32:21;;;;;;;10.27;7.45;;;;;;;;;;4863322;28;20187;-64
2023/06/11 05:34:49;;;;;;;9.23;7.20;;;;;;;;;;4854059;28;20152;-64
2023/06/11 05:37:15;;;;;;;9.10;7.10;;;;;;;;;;4849578;28;20041;-64
2023/06/11 05:39:42;;;;;;;8.82;7.25;;;;;;;;;;4840689;28;20128;-64
2023/06/11 05:42:08;;;;;;;8.95;6.72;;;;;;;;;;4860723;28;20044;-64
2023/06/11 05:44:33;;;;;;;8.65;6.68;;;;;;;;;;4861965;28;20056;-63
2023/06/11 05:46:58;;;;;;;10.32;6.60;;;;;;;;;;4848402;28;20040;-64
2023/06/11 05:49:24;;;;;;;9.95;6.88;;;;;;;;;;4855211;28;20081;-63
2023/06/11 05:51:51;;;;;;;11.27;6.50;;;;;;;;;;4851750;28;20584;-64
2023/06/11 05:54:16;;;;;;;9.23;7.00;;;;;;;;;;4846610;28;20049;-64
2023/06/11 05:56:45;;;;;;;8.65;6.57;;;;;;;;;;4845638;28;20048;-64
2023/06/11 05:59:12;;;;;;;8.10;6.65;;;;;;;;;;4849584;28;20041;-64
2023/06/11 06:01:37;;;;;;;9.57;7.25;;;;;;;;;;4851351;28;20048;-64
2023/06/11 06:04:03;;;;;;;11.25;6.75;;;;;;;;;;4853497;28;20084;-64
2023/06/11 06:06:29;;;;;;;11.32;6.93;;;;;;;;;;4848504;28;20053;-64
2023/06/11 06:08:55;;;;;;;8.88;6.75;;;;;;;;;;4844635;28;20064;-64
2023/06/11 06:11:20;;;;;;;10.85;6.72;;;;;;;;;;4902782;28;20971;-64
2023/06/11 06:13:45;;;;;;;8.85;7.25;;;;;;;;;;4847704;28;20042;-64
2023/06/11 06:16:11;;;;;;;9.40;7.47;;;;;;;;;;4862994;28;20529;-66
2023/06/11 06:18:42;;;;;;;9.93;8.10;;;;;;;;;;4852337;28;20093;-65
2023/06/11 06:21:07;;;;;;;10.02;7.95;;;;;;;;;;4842898;28;20046;-65
2023/06/11 06:23:35;;;;;;;10.60;8.35;;;;;;;;;;4880204;28;20068;-65
2023/06/11 06:26:01;;;;;;;11.70;8.27;;;;;;;;;;4848543;28;20070;-65
2023/06/11 06:28:26;;;;;;;11.50;8.07;;;;;;;;;;4854979;28;20135;-65
2023/06/11 06:30:51;;;;;;;10.32;8.00;;;;;;;;;;4855693;28;20049;-64
2023/06/11 06:33:17;;;;;;;10.40;8.18;;;;;;;;;;4927279;28;20045;-64
2023/06/11 06:35:42;;;;;;;13.48;7.40;;;;;;;;;;4843896;28;21380;-65
2023/06/11 06:38:10;;;;;;;11.13;8.07;;;;;;;;;;4842674;28;20057;-63
2023/06/11 06:40:35;;;;;;;10.32;7.93;;;;;;;;;;4849642;28;20037;-64
2023/06/11 06:43:00;;;;;;;12.10;7.97;;;;;;;;;;4858551;28;20070;-64
2023/06/11 06:45:26;;;;;;;9.55;8.15;;;;;;;;;;4848030;28;20120;-64
2023/06/11 06:47:51;;;;;;;12.40;8.27;;;;;;;;;;4926260;28;20101;-64
2023/06/11 06:50:16;;;;;;;10.23;7.57;;;;;;;;;;4859320;28;20037;-64
2023/06/11 06:52:42;;;;;;;10.85;7.43;;;;;;;;;;4844946;28;22156;-65
2023/06/11 06:55:08;;;;;;;8.02;7.22;;;;;;;;;;4851499;28;20180;-64
2023/06/11 06:57:38;;;;;;;9.18;7.22;;;;;;;;;;4861211;28;20038;-65
2023/06/11 07:00:05;;;;;;;9.05;6.95;;;;;;;;;;4859523;28;22221;-65
2023/06/11 07:02:30;;;;;;;8.32;6.85;;;;;;;;;;4844922;28;20092;-65
2023/06/11 07:04:56;;;;;;;7.90;6.53;;;;;;;;;;4843039;28;20037;-65
2023/06/11 07:07:24;;;;;;;8.38;7.00;;;;;;;;;;4862691;28;20053;-65
2023/06/11 07:09:49;;;;;;;11.23;7.00;;;;;;;;;;4853045;28;20554;-63
2023/06/11 07:12:14;;;;;;;8.90;6.78;;;;;;;;;;4843534;28;20056;-65
2023/06/11 07:14:40;;;;;;;7.85;6.70;;;;;;;;;;4851401;28;20119;-64
2023/06/11 07:17:05;;;;;;;12.18;6.57;;;;;;;;;;4843553;29;20041;-64
2023/06/11 07:19:30;;;;;;;7.68;6.38;;;;;;;;;;4851059;28;20035;-64
2023/06/11 07:21:55;;;;;;;9.00;6.22;;;;;;;;;;4926649;28;20051;-64
2023/06/11 07:24:21;;;;;;;8.45;6.50;;;;;;;;;;4848096;28;20063;-64
2023/06/11 07:26:46;;;;;;;8.20;6.70;;;;;;;;;;4847205;28;20042;-65
2023/06/11 07:29:14;;;;;;;8.23;6.60;;;;;;;;;;4857300;28;20061;-64
2023/06/11 07:31:41;;;;;;;8.40;7.18;;;;;;;;;;4838970;28;20038;-64
2023/06/11 07:34:09;;;;;;;9.32;6.35;;;;;;;;;;4846980;28;20064;-64
2023/06/11 07:36:35;;;;;;;7.45;6.20;;;;;;;;;;4859193;28;20159;-62
2023/06/11 07:39:01;;;;;;;10.15;6.10;;;;;;;;;;4846554;28;20711;-62
2023/06/11 07:41:28;;;;;;;7.65;6.50;;;;;;;;;;4850651;28;20037;-61
2023/06/11 07:43:56;;;;;;;8.35;5.82;;;;;;;;;;4854460;28;20041;-62
2023/06/11 07:46:21;;;;;;;7.32;6.55;;;;;;;;;;4861669;28;20047;-63
2023/06/11 07:48:48;;;;;;;8.85;6.50;;;;;;;;;;4847256;28;20121;-62
2023/06/11 07:51:14;;;;;;;8.43;6.72;;;;;;;;;;4855336;28;21453;-62
2023/06/11 07:53:40;;;;;;;7.72;6.53;;;;;;;;;;4856353;28;20072;-62
2023/06/11 07:56:06;;;;;;;9.00;6.78;;;;;;;;;;4839868;28;20041;-62
2023/06/11 07:58:31;;;;;;;7.47;6.68;;;;;;;;;;4843363;28;20043;-63
2023/06/11 08:00:59;;;;;;;9.27;6.60;;;;;;;;;;4852489;28;20131;-63
2023/06/11 08:03:24;;;;;;;7.93;6.30;;;;;;;;;;4846773;28;20045;-62
2023/06/11 08:05:50;;;;;;;8.60;6.07;;;;;;;;;;4859776;28;20056;-63
2023/06/11 08:08:15;;;;;;;8.27;6.22;;;;;;;;;;4843332;28;20052;-63
2023/06/11 08:10:41;;;;;;;9.60;5.93;;;;;;;;;;4910305;28;20037;-64
2023/06/11 08:13:06;;;;;;;9.57;6.68;;;;;;;;;;4908923;28;20124;-64
2023/06/11 08:15:32;;;;;;;7.53;6.20;;;;;;;;;;4861765;29;20154;-63
2023/06/11 08:17:57;;;;;;;10.07;6.32;;;;;;;;;;4848176;28;20033;-63
2023/06/11 08:20:25;;;;;;;6.75;6.03;;;;;;;;;;4921458;28;20041;-64
2023/06/11 08:22:50;;;;;;;7.50;5.70;;;;;;;;;;4843474;28;20096;-64
2023/06/11 08:25:15;;;;;;;6.97;6.07;;;;;;;;;;4841918;28;20069;-64
2023/06/11 08:27:41;;;;;;;7.93;5.70;;;;;;;;;;4857561;28;20713;-64
2023/06/11 08:30:06;;;;;;;12.55;5.80;;;;;;;;;;4837745;28;20045;-64
2023/06/11 08:32:32;;;;;;;9.93;6.47;;;;;;;;;;4844605;28;20045;-65
2023/06/11 08:34:57;;;;;;;7.65;5.88;;;;;;;;;;4913115;28;20042;-64
2023/06/11 08:37:23;;;;;;;8.43;6.00;;;;;;;;;;4838761;28;20046;-64
2023/06/11 08:39:50;;;;;;;8.68;5.95;;;;;;;;;;4841737;28;20040;-64
2023/06/11 08:42:16;;;;;;;6.25;5.65;;;;;;;;;;4845731;28;20038;-63
2023/06/11 08:44:41;;;;;;;6.30;5.70;;;;;;;;;;4845680;28;20045;-64
2023/06/11 08:47:09;;;;;;;9.43;5.78;;;;;;;;;;4922729;28;20033;-64
2023/06/11 08:49:40;;;;;;;10.98;6.00;;;;;;;;;;4842832;28;20049;-65
2023/06/11 08:52:06;;;;;;;7.60;6.65;;;;;;;;;;4885168;28;20093;-64
2023/06/11 08:54:33;;;;;;;8.40;6.13;;;;;;;;;;4842981;28;20069;-64
2023/06/11 08:56:59;;;;;;;7.78;5.88;;;;;;;;;;4859990;28;20037;-64
2023/06/11 08:59:24;;;;;;;6.72;5.97;;;;;;;;;;4848415;28;20041;-64
2023/06/11 09:01:52;;;;;;;7.00;6.30;;;;;;;;;;4844371;28;20470;-64
2023/06/11 09:04:18;;;;;;;10.45;6.20;;;;;;;;;;4843328;28;20037;-64
2023/06/11 09:06:50;;;;;;;10.68;6.43;;;;;;;;;;4916793;28;20138;-64
2023/06/11 09:09:15;;;;;;;9.68;6.80;;;;;;;;;;4860327;28;20083;-64
2023/06/11 09:11:40;;;;;;;7.72;6.05;;;;;;;;;;4861981;28;20154;-63
2023/06/11 09:14:07;;;;;;;6.70;6.00;;;;;;;;;;4848730;28;20057;-64
2023/06/11 09:16:39;;;;;;;7.82;6.30;;;;;;;;;;4842181;28;20144;-64
2023/06/11 09:19:05;;;;;;;7.22;5.60;;;;;;;;;;4844415;28;20055;-63
2023/06/11 09:21:30;;;;;;;8.80;6.00;;;;;;;;;;4874197;28;20053;-64
2023/06/11 09:24:04;;;;;;;8.18;5.78;;;;;;;;;;4847724;28;20041;-64
2023/06/11 09:26:30;;;;;;;8.50;6.40;;;;;;;;;;4839238;28;20223;-64
2023/06/11 09:28:58;;;;;;;7.38;5.80;;;;;;;;;;4838623;28;20683;-63
2023/06/11 09:31:23;;;;;;;7.18;5.95;;;;;;;;;;4838883;28;20045;-64
2023/06/11 09:33:52;;;;;;;9.05;5.28;;;;;;;;;;4839277;28;20383;-65
2023/06/11 09:36:18;;;;;;;7.28;5.60;;;;;;;;;;4864266;28;20037;-65
2023/06/11 09:38:45;;;;;;;8.15;5.70;;;;;;;;;;4839617;28;20037;-65
2023/06/11 09:41:10;;;;;;;7.50;6.00;;;;;;;;;;4843068;28;20037;-65
2023/06/11 09:43:39;;;;;;;10.18;5.50;;;;;;;;;;4857862;28;20041;-66
2023/06/11 09:46:04;;;;;;;10.10;5.90;;;;;;;;;;4842225;28;20100;-65
2023/06/11 09:48:30;;;;;;;8.88;5.50;;;;;;;;;;4841237;29;20045;-65
2023/06/11 09:50:55;;;;;;;8.45;5.38;;;;;;;;;;4831429;28;20049;-66
2023/06/11 09:53:21;;;;;;;6.53;5.57;;;;;;;;;;4842109;28;20062;-65
2023/06/11 09:55:50;;;;;;;9.60;5.78;;;;;;;;;;4884060;28;20045;-66
2023/06/11 09:58:18;;;;;;;;;;;;;;;;;;4830221;28;20053;-65
2023/06/11 10:00:46;;;;;;;6.53;5.80;;;;;;;;;;4842014;28;19916;-65
2023/06/11 10:03:12;;;;;;;7.00;5.75;;;;;;;;;;4826924;29;20045;-65
2023/06/11 10:05:37;;;;;;;7.65;5.30;;;;;;;;;;4898710;28;20040;-64
2023/06/11 10:08:03;;;;;;;6.65;5.63;;;;;;;;;;4829005;28;20038;-66
2023/06/11 10:10:29;;;;;;;8.60;5.22;;;;;;;;;;4830151;29;20037;-65
2023/06/11 10:12:55;;;;;;;9.18;5.43;;;;;;;;;;4827793;29;20033;-65
2023/06/11 10:15:21;;;;;;;6.90;5.50;;;;;;;;;;4833058;28;20048;-66
2023/06/11 10:17:48;;;;;;;6.93;5.55;;;;;;;;;;4836905;28;20624;-65
2023/06/11 10:20:19;;;;;;;7.20;5.13;;;;;;;;;;4861050;28;20048;-65
2023/06/11 10:22:45;;;;;;;7.50;5.15;;;;;;;;;;4855388;28;20537;-66
2023/06/11 10:25:11;;;;;;;8.75;5.15;;;;;;;;;;4856566;28;20041;-66
2023/06/11 10:27:40;;;;;;;5.15;4.60;;;;;;;;;;4838743;28;22109;-66
2023/06/11 10:30:06;;;;;;;5.93;4.88;;;;;;;;;;4836442;28;20045;-65
2023/06/11 10:32:31;;;;;;;6.10;5.18;;;;;;;;;;4841891;28;20109;-66
2023/06/11 10:34:58;;;;;;;6.28;5.68;;;;;;;;;;4832170;28;20041;-67
2023/06/11 10:37:49;;;;;;;6.00;5.30;;;;;;;;;;4831706;28;20071;-65
2023/06/11 10:40:15;;;;;;;6.53;5.05;;;;;;;;;;4842343;28;20511;-66
2023/06/11 10:42:43;;;;;;;7.13;5.35;;;;;;;;;;4841181;28;20037;-66
2023/06/11 10:45:14;;;;;;;7.47;5.43;;;;;;;;;;4841916;28;20052;-64
2023/06/11 10:47:54;;;;;;;6.65;4.90;;;;;;;;;;4869072;28;20096;-65
2023/06/11 10:50:24;;;;;;;7.68;5.18;;;;;;;;;;4866889;28;20116;-66
2023/06/11 10:53:01;;;;;;;5.70;5.20;;;;;;;;;;4833366;29;20601;-66
2023/06/11 10:55:29;;;;;;;6.63;5.28;;;;;;;;;;4839189;28;20048;-65
2023/06/11 10:57:57;;;;;;;5.35;4.85;;;;;;;;;;4838481;28;20533;-66
2023/06/11 11:00:32;;;;;;;10.93;5.35;;;;;;;;;;4855104;28;20489;-66
2023/06/11 11:02:57;;;;;;;7.88;5.70;;;;;;;;;;4837687;28;22333;-67
2023/06/11 11:05:23;;;;;;;7.78;5.38;;;;;;;;;;4858242;28;20041;-66
2023/06/11 11:07:49;;;;;;;6.68;5.32;;;;;;;;;;4841266;28;22264;-67
2023/06/11 11:10:18;;;;;;;6.55;5.03;;;;;;;;;;4901691;28;20053;-66
2023/06/11 11:12:47;;;;;;;8.00;5.25;;;;;;;;;;4857790;28;20177;-66
2023/06/11 11:15:16;;;;;;;6.80;5.10;;;;;;;;;;4841495;28;20577;-66
2023/06/11 11:17:42;;;;;;;7.65;5.00;;;;;;;;;;4853670;28;20514;-66
2023/06/11 11:20:10;;;;;;;8.15;5.63;;;;;;;;;;4856028;28;20083;-64
2023/06/11 11:22:36;;;;;;;6.15;5.15;;;;;;;;;;4837416;28;20976;-64
2023/06/11 11:25:03;;;;;;;6.85;5.30;;;;;;;;;;4829534;28;20044;-64
2023/06/11 11:27:28;;;;;;;5.70;5.10;;;;;;;;;;4837713;28;20037;-65
2023/06/11 11:29:58;;;;;;;5.97;5.22;;;;;;;;;;4836915;28;20064;-64
2023/06/11 11:32:26;;;;;;;7.10;5.25;;;;;;;;;;4831954;28;20040;-65
2023/06/11 11:34:54;;;;;;;6.00;5.47;;;;;;;;;;4841271;28;20071;-66
2023/06/11 11:37:21;;;;;;;6.28;5.45;;;;;;;;;;4839281;28;20037;-65
2023/06/11 11:39:49;;;;;;;6.72;5.50;;;;;;;;;;4868674;28;20037;-71
2023/06/11 11:42:15;;;;;;;7.68;5.80;;;;;;;;;;4843702;28;20595;-72
2023/06/11 11:44:43;;;;;;;9.10;5.88;;;;;;;;;;4858570;28;20041;-71
2023/06/11 11:47:09;;;;;;;6.00;5.40;;;;;;;;;;4844470;28;20041;-70
2023/06/11 11:49:38;;;;;;;8.70;5.82;;;;;;;;;;4843345;28;20897;-72
2023/06/11 11:52:05;;;;;;;6.78;5.70;;;;;;;;;;4843524;28;20034;-71
2023/06/11 11:54:30;;;;;;;5.43;4.93;;;;;;;;;;4837452;28;20601;-70
2023/06/11 11:57:03;;;;;;;9.73;5.68;;;;;;;;;;4872498;28;20096;-70
2023/06/11 11:59:28;;;;;;;7.28;5.43;;;;;;;;;;4845847;28;20033;-68
2023/06/11 12:01:54;;;;;;;6.95;5.32;;;;;;;;;;4843578;28;20041;-71
2023/06/11 12:04:20;;;;;;;7.35;5.30;;;;;;;;;;4846173;28;20033;-71
2023/06/11 12:06:46;;;;;;;8.15;5.57;;;;;;;;;;4849607;28;20062;-71
2023/06/11 12:09:12;;;;;;;8.15;5.60;;;;;;;;;;4848071;28;20105;-73
2023/06/11 12:11:37;;;;;;;8.60;5.95;;;;;;;;;;4841323;28;20065;-72
2023/06/11 12:14:03;;;;;;;7.65;5.22;;;;;;;;;;4852645;28;20097;-73
2023/06/11 12:16:30;;;;;;;8.23;5.50;;;;;;;;;;4847426;28;20104;-72
2023/06/11 12:18:58;;;;;;;7.05;5.55;;;;;;;;;;4852498;28;20037;-72
2023/06/11 12:21:23;;;;;;;6.32;5.30;;;;;;;;;;4853168;28;20314;-72
2023/06/11 12:23:49;;;;;;;5.95;5.30;;;;;;;;;;4862167;28;20078;-72
2023/06/11 12:26:14;;;;;;;6.88;5.65;;;;;;;;;;4860740;28;20105;-72
2023/06/11 12:28:39;;;;;;;7.35;5.90;;;;;;;;;;4846164;28;20049;-72
2023/06/11 12:31:05;;;;;;;7.38;5.20;;;;;;;;;;4848672;28;20052;-73
2023/06/11 12:33:31;;;;;;;6.22;5.60;;;;;;;;;;4849110;28;20041;-71
2023/06/11 12:35:56;;;;;;;6.00;5.40;;;;;;;;;;4847593;28;20041;-74
2023/06/11 12:38:22;;;;;;;6.60;5.88;;;;;;;;;;4860367;28;20033;-72
2023/06/11 12:40:48;;;;;;;6.15;5.43;;;;;;;;;;4874082;28;20550;-71
2023/06/11 12:43:13;;;;;;;6.18;5.57;;;;;;;;;;4876167;28;20117;-72
2023/06/11 12:45:38;;;;;;;6.78;5.43;;;;;;;;;;4846493;28;20045;-74
2023/06/11 12:48:06;;;;;;;9.50;5.68;;;;;;;;;;4846448;28;20812;-71
2023/06/11 12:50:33;;;;;;;7.00;5.57;;;;;;;;;;4846560;28;20587;-71
2023/06/11 12:52:59;;;;;;;6.65;5.75;;;;;;;;;;4847154;28;20037;-70
2023/06/11 12:55:24;;;;;;;6.57;5.90;;;;;;;;;;4859817;28;20045;-71
2023/06/11 12:57:50;;;;;;;6.68;5.57;;;;;;;;;;4850358;28;20033;-71
2023/06/11 13:00:15;;;;;;;7.18;5.85;;;;;;;;;;4847008;28;20041;-71
2023/06/11 13:02:41;;;;;;;7.63;5.10;;;;;;;;;;4845276;28;20783;-71
2023/06/11 13:05:06;;;;;;;7.55;5.57;;;;;;;;;;4847507;28;20044;-72
2023/06/11 13:07:32;;;;;;;6.07;5.18;;;;;;;;;;4851634;28;20095;-71
2023/06/11 13:10:00;;;;;;;7.50;5.47;;;;;;;;;;4861870;28;20044;-69
2023/06/11 13:12:26;;;;;;;5.43;4.93;;;;;;;;;;4862878;28;22170;-71
2023/06/11 13:14:54;;;;;;;6.65;5.10;;;;;;;;;;4859323;28;20160;-71
2023/06/11 13:17:20;;;;;;;9.50;5.78;;;;;;;;;;4862415;28;20052;-73
2023/06/11 13:19:45;;;;;;;5.75;5.05;;;;;;;;;;4862907;28;20041;-71
2023/06/11 13:22:12;;;;;;;10.50;5.22;;;;;;;;;;4864312;28;20882;-72
2023/06/11 13:24:37;;;;;;;7.15;5.43;;;;;;;;;;4861549;28;20071;-71
2023/06/11 13:27:03;;;;;;;7.35;5.35;;;;;;;;;;4862448;28;20044;-73
2023/06/11 13:29:28;;;;;;;7.65;4.90;;;;;;;;;;4923204;28;20048;-72
2023/06/11 13:31:56;;;;;;;7.65;4.85;;;;;;;;;;4863879;28;20052;-72
2023/06/11 13:34:24;;;;;;;9.38;5.32;;;;;;;;;;4861919;28;20040;-70
2023/06/11 13:36:55;;;;;;;7.95;5.20;;;;;;;;;;4861817;28;20524;-72
2023/06/11 13:39:23;;;;;;;5.60;4.85;;;;;;;;;;4863038;28;20644;-73
2023/06/11 13:41:50;;;;;;;5.90;5.10;;;;;;;;;;4863847;28;20040;-71
2023/06/11 13:44:18;;;;;;;6.57;4.65;;;;;;;;;;4862357;28;20149;-72
2023/06/11 13:46:43;;;;;;;5.35;4.65;;;;;;;;;;4863401;28;20041;-73
2023/06/11 13:49:08;;;;;;;5.43;4.53;;;;;;;;;;4863076;28;20140;-72
2023/06/11 13:51:34;;;;;;;7.18;4.80;;;;;;;;;;4878096;28;20698;-70
2023/06/11 13:54:00;;;;;;;6.88;4.70;;;;;;;;;;4862684;28;20047;-71
2023/06/11 13:56:25;;;;;;;6.28;4.20;;;;;;;;;;4863027;28;20058;-71
2023/06/11 13:58:51;;;;;;;6.20;4.40;;;;;;;;;;4862639;28;20036;-71
2023/06/11 14:01:16;;;;;;;4.90;4.15;;;;;;;;;;4862564;28;20044;-70
2023/06/11 14:03:41;;;;;;;6.57;4.88;;;;;;;;;;4875483;28;20140;-70
2023/06/11 14:06:09;;;;;;;4.60;4.10;;;;;;;;;;4862406;28;20467;-72
2023/06/11 14:08:34;;;;;;;4.97;4.47;;;;;;;;;;4825002;28;1140806;-70
2023/06/11 14:11:03;;;;;;;5.07;4.43;;;;;;;;;;4864850;28;20041;-71
2023/06/11 14:13:28;;;;;;;6.25;4.50;;;;;;;;;;4878770;28;20040;-71
2023/06/11 14:15:55;;;;;;;8.27;4.30;;;;;;;;;;4863911;28;20079;-72
2023/06/11 14:18:20;;;;;;;5.25;4.50;;;;;;;;;;4863519;28;20156;-73
2023/06/11 14:20:47;;;;;;;6.38;4.30;;;;;;;;;;4865715;28;20591;-71
2023/06/11 14:23:13;;;;;;;6.53;4.80;;;;;;;;;;4865302;28;20037;-71
2023/06/11 14:25:38;;;;;;;7.55;4.43;;;;;;;;;;4863149;28;20033;-70
2023/06/11 14:28:03;;;;;;;5.88;4.03;;;;;;;;;;4863206;28;20738;-69
2023/06/11 14:30:31;;;;;;;6.70;3.97;;;;;;;;;;4860308;28;20126;-73
2023/06/11 14:32:57;;;;;;;7.00;3.80;;;;;;;;;;4866475;28;20048;-72
2023/06/11 14:35:25;;;;;;;5.72;3.72;;;;;;;;;;4858880;28;20041;-70